sensor_id;sensor_type;location;lat;lon;timestamp;P1;durP1;ratioP1;P2;durP2;ratioP2
13469;SDS011;6807;48.682;9.032;2023-04-15T00:00:44;6.65;;;3.50;;
13469;SDS011;6807;48.682;9.032;2023-04-15T00:03:11;5.65;;;3.28;;
13469;SDS011;6807;48.682;9.032;2023-04-15T00:05:39;7.53;;;3.53;;
13469;SDS011;6807;48.682;9.032;2023-04-15T00:08:06;7.20;;;3.28;;
13469;SDS011;6807;48.682;9.032;2023-04-15T00:10:35;4.72;;;3.33;;
13469;SDS011;6807;48.682;9.032;2023-04-15T00:13:04;4.35;;;3.25;;
13469;SDS011;6807;48.682;9.032;2023-04-15T00:15:31;7.28;;;3.90;;
13469;SDS011;6807;48.682;9.032;2023-04-15T00:17:59;4.72;;;3.80;;
13469;SDS011;6807;48.682;9.032;2023-04-15T00:20:29;6.47;;;3.30;;
13469;SDS011;6807;48.682;9.032;2023-04-15T00:22:57;7.22;;;3.78;;
13469;SDS011;6807;48.682;9.032;2023-04-15T00:25:24;11.77;;;4.07;;
13469;SDS011;6807;48.682;9.032;2023-04-15T00:27:51;7.25;;;3.97;;
13469;SDS011;6807;48.682;9.032;2023-04-15T00:30:18;9.02;;;4.15;;
13469;SDS011;6807;48.682;9.032;2023-04-15T00:32:47;4.65;;;3.80;;
13469;SDS011;6807;48.682;9.032;2023-04-15T00:35:15;7.20;;;4.00;;
13469;SDS011;6807;48.682;9.032;2023-04-15T00:37:42;6.55;;;4.05;;
13469;SDS011;6807;48.682;9.032;2023-04-15T00:40:12;7.28;;;4.10;;
13469;SDS011;6807;48.682;9.032;2023-04-15T00:42:44;4.90;;;4.05;;
13469;SDS011;6807;48.682;9.032;2023-04-15T00:45:12;5.07;;;4.15;;
13469;SDS011;6807;48.682;9.032;2023-04-15T00:47:40;7.38;;;4.35;;
13469;SDS011;6807;48.682;9.032;2023-04-15T00:50:08;6.57;;;4.32;;
13469;SDS011;6807;48.682;9.032;2023-04-15T00:52:35;5.50;;;4.30;;
13469;SDS011;6807;48.682;9.032;2023-04-15T00:55:03;6.78;;;4.20;;
13469;SDS011;6807;48.682;9.032;2023-04-15T00:57:33;8.73;;;3.75;;
13469;SDS011;6807;48.682;9.032;2023-04-15T01:00:03;7.60;;;4.22;;
13469;SDS011;6807;48.682;9.032;2023-04-15T01:02:32;7.60;;;4.55;;
13469;SDS011;6807;48.682;9.032;2023-04-15T01:05:00;7.30;;;4.22;;
13469;SDS011;6807;48.682;9.032;2023-04-15T01:07:28;11.60;;;4.35;;
13469;SDS011;6807;48.682;9.032;2023-04-15T01:09:55;6.88;;;4.15;;
13469;SDS011;6807;48.682;9.032;2023-04-15T01:12:22;11.95;;;4.70;;
13469;SDS011;6807;48.682;9.032;2023-04-15T01:14:53;12.85;;;4.85;;
13469;SDS011;6807;48.682;9.032;2023-04-15T01:17:20;11.73;;;4.07;;
13469;SDS011;6807;48.682;9.032;2023-04-15T01:19:48;9.52;;;4.53;;
13469;SDS011;6807;48.682;9.032;2023-04-15T01:22:15;7.03;;;4.10;;
13469;SDS011;6807;48.682;9.032;2023-04-15T01:24:42;5.43;;;4.28;;
13469;SDS011;6807;48.682;9.032;2023-04-15T01:27:21;6.35;;;4.38;;
13469;SDS011;6807;48.682;9.032;2023-04-15T01:29:48;8.63;;;4.43;;
13469;SDS011;6807;48.682;9.032;2023-04-15T01:32:19;8.60;;;4.78;;
13469;SDS011;6807;48.682;9.032;2023-04-15T01:34:46;8.00;;;4.88;;
13469;SDS011;6807;48.682;9.032;2023-04-15T01:37:14;6.53;;;4.50;;
13469;SDS011;6807;48.682;9.032;2023-04-15T01:39:41;9.98;;;4.72;;
13469;SDS011;6807;48.682;9.032;2023-04-15T01:42:08;7.32;;;4.35;;
13469;SDS011;6807;48.682;9.032;2023-04-15T01:44:37;7.80;;;4.30;;
13469;SDS011;6807;48.682;9.032;2023-04-15T01:47:04;6.10;;;3.88;;
13469;SDS011;6807;48.682;9.032;2023-04-15T01:49:31;7.82;;;4.10;;
13469;SDS011;6807;48.682;9.032;2023-04-15T01:51:57;8.55;;;5.35;;
13469;SDS011;6807;48.682;9.032;2023-04-15T01:54:24;7.82;;;4.32;;
13469;SDS011;6807;48.682;9.032;2023-04-15T01:56:54;13.63;;;4.43;;
13469;SDS011;6807;48.682;9.032;2023-04-15T01:59:21;9.52;;;4.53;;
13469;SDS011;6807;48.682;9.032;2023-04-15T02:01:50;8.30;;;4.70;;
13469;SDS011;6807;48.682;9.032;2023-04-15T02:04:17;8.75;;;4.68;;
13469;SDS011;6807;48.682;9.032;2023-04-15T02:06:44;5.35;;;4.72;;
13469;SDS011;6807;48.682;9.032;2023-04-15T02:09:13;14.30;;;4.65;;
13469;SDS011;6807;48.682;9.032;2023-04-15T02:11:41;5.90;;;4.18;;
13469;SDS011;6807;48.682;9.032;2023-04-15T02:14:09;6.45;;;3.90;;
13469;SDS011;6807;48.682;9.032;2023-04-15T02:16:36;9.82;;;4.30;;
13469;SDS011;6807;48.682;9.032;2023-04-15T02:19:05;5.88;;;3.70;;
13469;SDS011;6807;48.682;9.032;2023-04-15T02:21:32;10.02;;;4.00;;
13469;SDS011;6807;48.682;9.032;2023-04-15T02:24:00;6.53;;;3.97;;
13469;SDS011;6807;48.682;9.032;2023-04-15T02:26:28;6.30;;;4.22;;
13469;SDS011;6807;48.682;9.032;2023-04-15T02:28:58;7.80;;;4.40;;
13469;SDS011;6807;48.682;9.032;2023-04-15T02:31:25;5.78;;;4.47;;
13469;SDS011;6807;48.682;9.032;2023-04-15T02:33:54;6.22;;;4.28;;
13469;SDS011;6807;48.682;9.032;2023-04-15T02:36:24;6.05;;;4.10;;
13469;SDS011;6807;48.682;9.032;2023-04-15T02:38:53;7.40;;;4.05;;
13469;SDS011;6807;48.682;9.032;2023-04-15T02:41:21;8.88;;;4.68;;
13469;SDS011;6807;48.682;9.032;2023-04-15T02:43:51;6.32;;;3.67;;
13469;SDS011;6807;48.682;9.032;2023-04-15T02:46:18;7.75;;;4.22;;
13469;SDS011;6807;48.682;9.032;2023-04-15T02:48:46;8.85;;;4.90;;
13469;SDS011;6807;48.682;9.032;2023-04-15T02:51:13;8.35;;;3.95;;
13469;SDS011;6807;48.682;9.032;2023-04-15T02:53:45;5.40;;;3.38;;
13469;SDS011;6807;48.682;9.032;2023-04-15T02:56:15;7.72;;;3.97;;
13469;SDS011;6807;48.682;9.032;2023-04-15T02:58:43;8.65;;;4.30;;
13469;SDS011;6807;48.682;9.032;2023-04-15T03:01:11;7.38;;;4.53;;
13469;SDS011;6807;48.682;9.032;2023-04-15T03:03:40;7.28;;;3.95;;
13469;SDS011;6807;48.682;9.032;2023-04-15T03:06:10;6.03;;;3.97;;
13469;SDS011;6807;48.682;9.032;2023-04-15T03:08:37;6.30;;;3.92;;
13469;SDS011;6807;48.682;9.032;2023-04-15T03:11:09;8.85;;;4.95;;
13469;SDS011;6807;48.682;9.032;2023-04-15T03:13:36;4.60;;;3.55;;
13469;SDS011;6807;48.682;9.032;2023-04-15T03:16:06;4.78;;;4.22;;
13469;SDS011;6807;48.682;9.032;2023-04-15T03:18:33;5.28;;;4.00;;
13469;SDS011;6807;48.682;9.032;2023-04-15T03:21:02;4.68;;;3.83;;
13469;SDS011;6807;48.682;9.032;2023-04-15T03:23:33;7.22;;;3.80;;
13469;SDS011;6807;48.682;9.032;2023-04-15T03:26:03;7.00;;;3.80;;
13469;SDS011;6807;48.682;9.032;2023-04-15T03:28:32;6.32;;;3.65;;
13469;SDS011;6807;48.682;9.032;2023-04-15T03:30:59;7.03;;;3.90;;
13469;SDS011;6807;48.682;9.032;2023-04-15T03:33:26;5.30;;;4.00;;
13469;SDS011;6807;48.682;9.032;2023-04-15T03:35:53;5.28;;;4.25;;
13469;SDS011;6807;48.682;9.032;2023-04-15T03:38:21;7.43;;;4.10;;
13469;SDS011;6807;48.682;9.032;2023-04-15T03:40:48;5.22;;;3.38;;
13469;SDS011;6807;48.682;9.032;2023-04-15T03:43:15;6.65;;;3.83;;
13469;SDS011;6807;48.682;9.032;2023-04-15T03:45:44;6.80;;;3.55;;
13469;SDS011;6807;48.682;9.032;2023-04-15T03:48:11;9.88;;;4.03;;
13469;SDS011;6807;48.682;9.032;2023-04-15T03:50:39;6.32;;;4.10;;
13469;SDS011;6807;48.682;9.032;2023-04-15T03:53:06;8.05;;;3.83;;
13469;SDS011;6807;48.682;9.032;2023-04-15T03:55:32;9.10;;;3.83;;
13469;SDS011;6807;48.682;9.032;2023-04-15T03:57:59;11.57;;;4.07;;
13469;SDS011;6807;48.682;9.032;2023-04-15T04:00:27;7.18;;;3.58;;
13469;SDS011;6807;48.682;9.032;2023-04-15T04:03:00;6.35;;;3.97;;
13469;SDS011;6807;48.682;9.032;2023-04-15T04:05:27;6.25;;;3.75;;
13469;SDS011;6807;48.682;9.032;2023-04-15T04:07:54;5.15;;;3.70;;
13469;SDS011;6807;48.682;9.032;2023-04-15T04:10:22;6.70;;;4.32;;
13469;SDS011;6807;48.682;9.032;2023-04-15T04:12:49;6.20;;;4.03;;
13469;SDS011;6807;48.682;9.032;2023-04-15T04:15:16;6.53;;;3.75;;
13469;SDS011;6807;48.682;9.032;2023-04-15T04:17:43;6.03;;;4.13;;
13469;SDS011;6807;48.682;9.032;2023-04-15T04:20:12;5.57;;;4.10;;
13469;SDS011;6807;48.682;9.032;2023-04-15T04:22:39;8.25;;;4.13;;
13469;SDS011;6807;48.682;9.032;2023-04-15T04:25:08;8.25;;;4.72;;
13469;SDS011;6807;48.682;9.032;2023-04-15T04:27:35;5.65;;;3.83;;
13469;SDS011;6807;48.682;9.032;2023-04-15T04:30:03;5.85;;;4.00;;
13469;SDS011;6807;48.682;9.032;2023-04-15T04:32:30;6.97;;;3.95;;
13469;SDS011;6807;48.682;9.032;2023-04-15T04:35:01;5.80;;;3.95;;
13469;SDS011;6807;48.682;9.032;2023-04-15T04:37:30;5.72;;;4.15;;
13469;SDS011;6807;48.682;9.032;2023-04-15T04:39:57;4.60;;;3.80;;
13469;SDS011;6807;48.682;9.032;2023-04-15T04:42:23;6.00;;;3.72;;
13469;SDS011;6807;48.682;9.032;2023-04-15T04:44:50;8.23;;;3.53;;
13469;SDS011;6807;48.682;9.032;2023-04-15T04:47:17;7.20;;;3.78;;
13469;SDS011;6807;48.682;9.032;2023-04-15T04:49:45;7.00;;;4.47;;
13469;SDS011;6807;48.682;9.032;2023-04-15T04:52:12;5.68;;;3.78;;
13469;SDS011;6807;48.682;9.032;2023-04-15T04:54:41;5.90;;;4.40;;
13469;SDS011;6807;48.682;9.032;2023-04-15T04:57:09;7.47;;;4.05;;
13469;SDS011;6807;48.682;9.032;2023-04-15T04:59:37;6.43;;;4.22;;
13469;SDS011;6807;48.682;9.032;2023-04-15T05:02:04;11.85;;;4.03;;
13469;SDS011;6807;48.682;9.032;2023-04-15T05:04:32;7.35;;;4.10;;
13469;SDS011;6807;48.682;9.032;2023-04-15T05:06:59;7.43;;;4.22;;
13469;SDS011;6807;48.682;9.032;2023-04-15T05:09:26;7.38;;;4.30;;
13469;SDS011;6807;48.682;9.032;2023-04-15T05:11:57;5.80;;;4.15;;
13469;SDS011;6807;48.682;9.032;2023-04-15T05:14:25;6.90;;;4.18;;
13469;SDS011;6807;48.682;9.032;2023-04-15T05:16:52;6.93;;;4.25;;
13469;SDS011;6807;48.682;9.032;2023-04-15T05:19:19;5.45;;;4.00;;
13469;SDS011;6807;48.682;9.032;2023-04-15T05:21:47;6.95;;;3.85;;
13469;SDS011;6807;48.682;9.032;2023-04-15T05:24:15;7.03;;;3.90;;
13469;SDS011;6807;48.682;9.032;2023-04-15T05:26:42;9.85;;;4.38;;
13469;SDS011;6807;48.682;9.032;2023-04-15T05:29:10;6.07;;;4.53;;
13469;SDS011;6807;48.682;9.032;2023-04-15T05:31:37;6.97;;;4.10;;
13469;SDS011;6807;48.682;9.032;2023-04-15T05:34:06;6.32;;;4.38;;
13469;SDS011;6807;48.682;9.032;2023-04-15T05:36:34;8.18;;;4.03;;
13469;SDS011;6807;48.682;9.032;2023-04-15T05:39:01;9.23;;;3.63;;
13469;SDS011;6807;48.682;9.032;2023-04-15T05:41:28;6.78;;;3.83;;
13469;SDS011;6807;48.682;9.032;2023-04-15T05:43:55;5.72;;;4.50;;
13469;SDS011;6807;48.682;9.032;2023-04-15T05:46:23;7.68;;;3.92;;
13469;SDS011;6807;48.682;9.032;2023-04-15T05:48:50;4.68;;;4.00;;
13469;SDS011;6807;48.682;9.032;2023-04-15T05:51:18;4.90;;;3.65;;
13469;SDS011;6807;48.682;9.032;2023-04-15T05:53:45;5.10;;;3.63;;
13469;SDS011;6807;48.682;9.032;2023-04-15T05:56:12;5.18;;;3.42;;
13469;SDS011;6807;48.682;9.032;2023-04-15T05:58:39;6.60;;;3.35;;
13469;SDS011;6807;48.682;9.032;2023-04-15T06:01:06;6.32;;;3.63;;
13469;SDS011;6807;48.682;9.032;2023-04-15T06:03:34;9.00;;;3.90;;
13469;SDS011;6807;48.682;9.032;2023-04-15T06:06:01;7.97;;;5.32;;
13469;SDS011;6807;48.682;9.032;2023-04-15T06:08:28;10.45;;;7.60;;
13469;SDS011;6807;48.682;9.032;2023-04-15T06:10:55;14.32;;;8.32;;
13469;SDS011;6807;48.682;9.032;2023-04-15T06:13:24;20.20;;;14.73;;
13469;SDS011;6807;48.682;9.032;2023-04-15T06:15:51;18.60;;;12.27;;
13469;SDS011;6807;48.682;9.032;2023-04-15T06:18:18;17.48;;;12.23;;
13469;SDS011;6807;48.682;9.032;2023-04-15T06:20:46;16.92;;;12.40;;
13469;SDS011;6807;48.682;9.032;2023-04-15T06:23:13;11.88;;;8.02;;
13469;SDS011;6807;48.682;9.032;2023-04-15T06:25:40;9.07;;;6.70;;
13469;SDS011;6807;48.682;9.032;2023-04-15T06:28:07;9.60;;;5.97;;
13469;SDS011;6807;48.682;9.032;2023-04-15T06:30:34;6.00;;;4.70;;
13469;SDS011;6807;48.682;9.032;2023-04-15T06:33:02;6.53;;;4.20;;
13469;SDS011;6807;48.682;9.032;2023-04-15T06:35:30;5.75;;;4.00;;
13469;SDS011;6807;48.682;9.032;2023-04-15T06:37:58;7.82;;;3.60;;
13469;SDS011;6807;48.682;9.032;2023-04-15T06:40:25;4.85;;;3.40;;
13469;SDS011;6807;48.682;9.032;2023-04-15T06:42:52;4.82;;;3.65;;
13469;SDS011;6807;48.682;9.032;2023-04-15T06:45:20;4.78;;;3.35;;
13469;SDS011;6807;48.682;9.032;2023-04-15T06:47:47;5.47;;;3.58;;
13469;SDS011;6807;48.682;9.032;2023-04-15T07:00:11;8.80;;;3.17;;
13469;SDS011;6807;48.682;9.032;2023-04-15T07:06:26;6.60;;;3.42;;
13469;SDS011;6807;48.682;9.032;2023-04-15T07:08:53;8.60;;;3.47;;
13469;SDS011;6807;48.682;9.032;2023-04-15T07:11:21;4.60;;;3.35;;
13469;SDS011;6807;48.682;9.032;2023-04-15T07:13:48;5.03;;;3.58;;
13469;SDS011;6807;48.682;9.032;2023-04-15T07:16:15;6.47;;;3.53;;
13469;SDS011;6807;48.682;9.032;2023-04-15T07:18:43;6.70;;;3.55;;
13469;SDS011;6807;48.682;9.032;2023-04-15T07:21:10;4.95;;;3.15;;
13469;SDS011;6807;48.682;9.032;2023-04-15T07:23:37;5.20;;;3.63;;
13469;SDS011;6807;48.682;9.032;2023-04-15T07:26:04;4.65;;;3.10;;
13469;SDS011;6807;48.682;9.032;2023-04-15T07:28:33;5.85;;;3.40;;
13469;SDS011;6807;48.682;9.032;2023-04-15T07:31:00;7.30;;;3.33;;
13469;SDS011;6807;48.682;9.032;2023-04-15T07:33:27;6.63;;;3.05;;
13469;SDS011;6807;48.682;9.032;2023-04-15T07:35:54;5.70;;;3.35;;
13469;SDS011;6807;48.682;9.032;2023-04-15T07:38:21;7.50;;;2.78;;
13469;SDS011;6807;48.682;9.032;2023-04-15T07:40:48;4.97;;;2.75;;
13469;SDS011;6807;48.682;9.032;2023-04-15T07:56:10;4.78;;;2.58;;
13469;SDS011;6807;48.682;9.032;2023-04-15T07:58:37;6.68;;;2.85;;
13469;SDS011;6807;48.682;9.032;2023-04-15T08:01:04;5.47;;;2.72;;
13469;SDS011;6807;48.682;9.032;2023-04-15T09:03:56;4.07;;;1.90;;
13469;SDS011;6807;48.682;9.032;2023-04-15T09:06:35;4.22;;;1.75;;
13469;SDS011;6807;48.682;9.032;2023-04-15T10:03:24;3.20;;;1.85;;
13469;SDS011;6807;48.682;9.032;2023-04-15T10:08:29;3.17;;;1.75;;
13469;SDS011;6807;48.682;9.032;2023-04-15T10:14:11;3.53;;;2.20;;
13469;SDS011;6807;48.682;9.032;2023-04-15T10:22:09;2.25;;;1.88;;
13469;SDS011;6807;48.682;9.032;2023-04-15T10:24:57;2.03;;;1.55;;
13469;SDS011;6807;48.682;9.032;2023-04-15T10:27:25;3.05;;;1.73;;
13469;SDS011;6807;48.682;9.032;2023-04-15T10:29:53;5.80;;;2.33;;
13469;SDS011;6807;48.682;9.032;2023-04-15T10:32:24;3.42;;;1.58;;
13469;SDS011;6807;48.682;9.032;2023-04-15T10:34:55;3.50;;;1.73;;
13469;SDS011;6807;48.682;9.032;2023-04-15T10:37:33;6.90;;;1.73;;
13469;SDS011;6807;48.682;9.032;2023-04-15T10:42:50;3.67;;;2.10;;
13469;SDS011;6807;48.682;9.032;2023-04-15T10:45:17;5.30;;;1.98;;
13469;SDS011;6807;48.682;9.032;2023-04-15T10:47:44;5.43;;;2.47;;
13469;SDS011;6807;48.682;9.032;2023-04-15T10:50:12;2.95;;;1.98;;
13469;SDS011;6807;48.682;9.032;2023-04-15T10:52:41;3.10;;;1.98;;
13469;SDS011;6807;48.682;9.032;2023-04-15T10:58:41;3.63;;;2.30;;
13469;SDS011;6807;48.682;9.032;2023-04-15T11:10:02;6.97;;;2.40;;
13469;SDS011;6807;48.682;9.032;2023-04-15T11:12:53;4.13;;;2.50;;
13469;SDS011;6807;48.682;9.032;2023-04-15T11:15:29;3.70;;;2.72;;
13469;SDS011;6807;48.682;9.032;2023-04-15T11:17:58;3.72;;;2.67;;
13469;SDS011;6807;48.682;9.032;2023-04-15T11:20:34;6.68;;;3.80;;
13469;SDS011;6807;48.682;9.032;2023-04-15T11:48:14;4.40;;;2.40;;
13469;SDS011;6807;48.682;9.032;2023-04-15T11:51:00;4.00;;;2.33;;
13469;SDS011;6807;48.682;9.032;2023-04-15T11:53:37;4.30;;;2.45;;
13469;SDS011;6807;48.682;9.032;2023-04-15T11:56:07;4.20;;;2.38;;
13469;SDS011;6807;48.682;9.032;2023-04-15T11:58:36;3.65;;;2.20;;
13469;SDS011;6807;48.682;9.032;2023-04-15T12:01:04;3.50;;;2.35;;
13469;SDS011;6807;48.682;9.032;2023-04-15T12:03:37;3.65;;;2.28;;
13469;SDS011;6807;48.682;9.032;2023-04-15T12:06:08;4.88;;;2.67;;
13469;SDS011;6807;48.682;9.032;2023-04-15T12:08:50;4.53;;;2.22;;
13469;SDS011;6807;48.682;9.032;2023-04-15T12:11:18;4.10;;;2.35;;
13469;SDS011;6807;48.682;9.032;2023-04-15T12:13:46;7.57;;;2.90;;
13469;SDS011;6807;48.682;9.032;2023-04-15T12:16:15;3.08;;;2.35;;
13469;SDS011;6807;48.682;9.032;2023-04-15T12:18:45;3.55;;;2.50;;
13469;SDS011;6807;48.682;9.032;2023-04-15T12:21:12;5.93;;;2.63;;
13469;SDS011;6807;48.682;9.032;2023-04-15T12:23:47;4.88;;;3.35;;
13469;SDS011;6807;48.682;9.032;2023-04-15T12:26:15;4.82;;;2.13;;
13469;SDS011;6807;48.682;9.032;2023-04-15T12:28:43;6.75;;;2.80;;
13469;SDS011;6807;48.682;9.032;2023-04-15T12:31:10;4.72;;;2.90;;
13469;SDS011;6807;48.682;9.032;2023-04-15T12:33:39;5.07;;;2.80;;
13469;SDS011;6807;48.682;9.032;2023-04-15T12:36:10;4.60;;;2.97;;
13469;SDS011;6807;48.682;9.032;2023-04-15T12:38:37;6.55;;;3.47;;
13469;SDS011;6807;48.682;9.032;2023-04-15T12:41:04;3.42;;;3.08;;
13469;SDS011;6807;48.682;9.032;2023-04-15T12:43:31;6.10;;;3.53;;
13469;SDS011;6807;48.682;9.032;2023-04-15T12:45:58;3.92;;;2.95;;
13469;SDS011;6807;48.682;9.032;2023-04-15T12:48:25;7.20;;;3.05;;
13469;SDS011;6807;48.682;9.032;2023-04-15T12:50:52;5.82;;;2.40;;
13469;SDS011;6807;48.682;9.032;2023-04-15T12:53:20;3.03;;;2.75;;
13469;SDS011;6807;48.682;9.032;2023-04-15T12:55:47;6.60;;;2.92;;
13469;SDS011;6807;48.682;9.032;2023-04-15T12:58:14;3.28;;;2.45;;
13469;SDS011;6807;48.682;9.032;2023-04-15T13:00:41;3.75;;;2.67;;
13469;SDS011;6807;48.682;9.032;2023-04-15T13:03:08;7.32;;;2.72;;
13469;SDS011;6807;48.682;9.032;2023-04-15T13:05:36;3.40;;;2.88;;
13469;SDS011;6807;48.682;9.032;2023-04-15T13:08:04;5.10;;;2.45;;
13469;SDS011;6807;48.682;9.032;2023-04-15T13:10:34;2.95;;;2.47;;
13469;SDS011;6807;48.682;9.032;2023-04-15T13:13:01;3.58;;;2.75;;
13469;SDS011;6807;48.682;9.032;2023-04-15T13:15:29;5.93;;;3.25;;
13469;SDS011;6807;48.682;9.032;2023-04-15T13:17:57;3.80;;;2.80;;
13469;SDS011;6807;48.682;9.032;2023-04-15T13:20:24;3.28;;;2.35;;
13469;SDS011;6807;48.682;9.032;2023-04-15T13:22:52;4.78;;;2.70;;
13469;SDS011;6807;48.682;9.032;2023-04-15T13:25:19;5.93;;;2.60;;
13469;SDS011;6807;48.682;9.032;2023-04-15T13:27:48;3.55;;;2.95;;
13469;SDS011;6807;48.682;9.032;2023-04-15T13:30:15;4.60;;;2.75;;
13469;SDS011;6807;48.682;9.032;2023-04-15T13:32:42;4.07;;;2.50;;
13469;SDS011;6807;48.682;9.032;2023-04-15T13:35:09;4.65;;;3.30;;
13469;SDS011;6807;48.682;9.032;2023-04-15T13:37:36;4.88;;;3.50;;
13469;SDS011;6807;48.682;9.032;2023-04-15T13:40:04;4.18;;;2.92;;
13469;SDS011;6807;48.682;9.032;2023-04-15T13:42:32;4.30;;;3.10;;
13469;SDS011;6807;48.682;9.032;2023-04-15T13:45:00;4.90;;;2.45;;
13469;SDS011;6807;48.682;9.032;2023-04-15T13:47:27;4.50;;;2.92;;
13469;SDS011;6807;48.682;9.032;2023-04-15T13:49:54;3.42;;;3.05;;
13469;SDS011;6807;48.682;9.032;2023-04-15T13:52:21;4.47;;;3.00;;
13469;SDS011;6807;48.682;9.032;2023-04-15T13:54:48;6.80;;;3.20;;
13469;SDS011;6807;48.682;9.032;2023-04-15T13:57:15;4.40;;;3.35;;
13469;SDS011;6807;48.682;9.032;2023-04-15T13:59:42;6.22;;;2.90;;
13469;SDS011;6807;48.682;9.032;2023-04-15T14:02:11;4.80;;;2.88;;
13469;SDS011;6807;48.682;9.032;2023-04-15T14:04:38;3.60;;;2.92;;
13469;SDS011;6807;48.682;9.032;2023-04-15T14:07:05;3.22;;;2.47;;
13469;SDS011;6807;48.682;9.032;2023-04-15T14:09:31;4.13;;;2.70;;
13469;SDS011;6807;48.682;9.032;2023-04-15T14:11:58;5.38;;;2.70;;
13469;SDS011;6807;48.682;9.032;2023-04-15T14:14:26;7.50;;;2.17;;
13469;SDS011;6807;48.682;9.032;2023-04-15T14:16:54;3.40;;;2.17;;
13469;SDS011;6807;48.682;9.032;2023-04-15T14:19:23;2.00;;;1.80;;
13469;SDS011;6807;48.682;9.032;2023-04-15T14:21:50;2.28;;;1.63;;
13469;SDS011;6807;48.682;9.032;2023-04-15T14:24:17;1.35;;;1.25;;
13469;SDS011;6807;48.682;9.032;2023-04-15T14:26:44;1.50;;;1.40;;
13469;SDS011;6807;48.682;9.032;2023-04-15T14:29:11;2.95;;;1.60;;
13469;SDS011;6807;48.682;9.032;2023-04-15T14:31:38;2.03;;;1.63;;
13469;SDS011;6807;48.682;9.032;2023-04-15T14:34:05;3.33;;;1.63;;
13469;SDS011;6807;48.682;9.032;2023-04-15T14:36:33;2.20;;;1.60;;
13469;SDS011;6807;48.682;9.032;2023-04-15T14:39:00;2.42;;;1.75;;
13469;SDS011;6807;48.682;9.032;2023-04-15T14:41:28;2.38;;;1.90;;
13469;SDS011;6807;48.682;9.032;2023-04-15T14:43:55;2.88;;;1.70;;
13469;SDS011;6807;48.682;9.032;2023-04-15T14:46:22;3.22;;;1.80;;
13469;SDS011;6807;48.682;9.032;2023-04-15T14:48:49;2.80;;;1.88;;
13469;SDS011;6807;48.682;9.032;2023-04-15T14:51:16;5.03;;;2.50;;
13469;SDS011;6807;48.682;9.032;2023-04-15T14:53:45;3.10;;;2.42;;
13469;SDS011;6807;48.682;9.032;2023-04-15T14:56:12;3.78;;;2.75;;
13469;SDS011;6807;48.682;9.032;2023-04-15T14:58:38;3.15;;;2.30;;
13469;SDS011;6807;48.682;9.032;2023-04-15T15:01:05;3.83;;;2.50;;
13469;SDS011;6807;48.682;9.032;2023-04-15T15:03:33;3.35;;;2.50;;
13469;SDS011;6807;48.682;9.032;2023-04-15T15:06:00;3.65;;;2.60;;
13469;SDS011;6807;48.682;9.032;2023-04-15T15:08:27;2.95;;;2.50;;
13469;SDS011;6807;48.682;9.032;2023-04-15T15:10:55;3.10;;;2.30;;
13469;SDS011;6807;48.682;9.032;2023-04-15T15:13:22;3.05;;;2.30;;
13469;SDS011;6807;48.682;9.032;2023-04-15T15:15:50;4.32;;;2.53;;
13469;SDS011;6807;48.682;9.032;2023-04-15T15:18:17;3.05;;;2.70;;
13469;SDS011;6807;48.682;9.032;2023-04-15T15:20:44;4.18;;;3.03;;
13469;SDS011;6807;48.682;9.032;2023-04-15T15:23:11;3.55;;;2.50;;
13469;SDS011;6807;48.682;9.032;2023-04-15T15:25:37;3.42;;;2.40;;
13469;SDS011;6807;48.682;9.032;2023-04-15T15:28:06;2.63;;;2.42;;
13469;SDS011;6807;48.682;9.032;2023-04-15T15:30:33;3.45;;;2.45;;
13469;SDS011;6807;48.682;9.032;2023-04-15T15:33:00;2.95;;;2.47;;
13469;SDS011;6807;48.682;9.032;2023-04-15T15:35:27;5.60;;;2.80;;
13469;SDS011;6807;48.682;9.032;2023-04-15T15:37:54;3.00;;;2.70;;
13469;SDS011;6807;48.682;9.032;2023-04-15T15:40:22;3.17;;;2.38;;
13469;SDS011;6807;48.682;9.032;2023-04-15T15:42:49;3.80;;;2.67;;
13469;SDS011;6807;48.682;9.032;2023-04-15T15:45:17;3.25;;;2.63;;
13469;SDS011;6807;48.682;9.032;2023-04-15T15:47:44;5.93;;;2.80;;
13469;SDS011;6807;48.682;9.032;2023-04-15T15:50:12;3.97;;;2.47;;
13469;SDS011;6807;48.682;9.032;2023-04-15T15:52:39;4.07;;;2.50;;
13469;SDS011;6807;48.682;9.032;2023-04-15T15:55:06;3.35;;;2.22;;
13469;SDS011;6807;48.682;9.032;2023-04-15T16:02:42;3.33;;;2.28;;
13469;SDS011;6807;48.682;9.032;2023-04-15T16:05:09;5.15;;;2.15;;
13469;SDS011;6807;48.682;9.032;2023-04-15T16:07:36;2.20;;;2.00;;
13469;SDS011;6807;48.682;9.032;2023-04-15T16:10:04;2.10;;;1.90;;
13469;SDS011;6807;48.682;9.032;2023-04-15T16:12:32;2.85;;;1.98;;
13469;SDS011;6807;48.682;9.032;2023-04-15T16:15:12;2.28;;;1.80;;
13469;SDS011;6807;48.682;9.032;2023-04-15T16:17:48;2.67;;;1.95;;
13469;SDS011;6807;48.682;9.032;2023-04-15T16:20:22;2.10;;;1.90;;
13469;SDS011;6807;48.682;9.032;2023-04-15T16:22:49;2.67;;;2.17;;
13469;SDS011;6807;48.682;9.032;2023-04-15T16:25:16;2.63;;;1.98;;
13469;SDS011;6807;48.682;9.032;2023-04-15T16:47:32;2.33;;;2.13;;
13469;SDS011;6807;48.682;9.032;2023-04-15T16:49:59;2.58;;;2.10;;
13469;SDS011;6807;48.682;9.032;2023-04-15T16:52:28;2.15;;;1.95;;
13469;SDS011;6807;48.682;9.032;2023-04-15T16:58:18;2.35;;;2.15;;
13469;SDS011;6807;48.682;9.032;2023-04-15T17:00:45;4.00;;;2.60;;
13469;SDS011;6807;48.682;9.032;2023-04-15T17:03:13;2.88;;;2.05;;
13469;SDS011;6807;48.682;9.032;2023-04-15T17:05:40;4.63;;;2.50;;
13469;SDS011;6807;48.682;9.032;2023-04-15T17:08:07;3.35;;;2.30;;
13469;SDS011;6807;48.682;9.032;2023-04-15T17:10:36;4.88;;;3.13;;
13469;SDS011;6807;48.682;9.032;2023-04-15T17:13:03;4.93;;;2.50;;
13469;SDS011;6807;48.682;9.032;2023-04-15T17:15:33;2.78;;;2.30;;
13469;SDS011;6807;48.682;9.032;2023-04-15T17:18:03;2.53;;;2.33;;
13469;SDS011;6807;48.682;9.032;2023-04-15T17:20:32;5.10;;;2.78;;
13469;SDS011;6807;48.682;9.032;2023-04-15T17:22:59;2.67;;;2.25;;
13469;SDS011;6807;48.682;9.032;2023-04-15T17:25:26;4.10;;;2.40;;
13469;SDS011;6807;48.682;9.032;2023-04-15T17:27:54;3.38;;;2.25;;
13469;SDS011;6807;48.682;9.032;2023-04-15T17:30:22;3.00;;;2.45;;
13469;SDS011;6807;48.682;9.032;2023-04-15T17:32:50;2.47;;;2.28;;
13469;SDS011;6807;48.682;9.032;2023-04-15T17:35:17;2.28;;;2.08;;
13469;SDS011;6807;48.682;9.032;2023-04-15T17:37:46;3.58;;;2.10;;
13469;SDS011;6807;48.682;9.032;2023-04-15T17:40:13;2.60;;;2.30;;
13469;SDS011;6807;48.682;9.032;2023-04-15T17:42:40;2.20;;;2.00;;
13469;SDS011;6807;48.682;9.032;2023-04-15T17:45:08;2.38;;;2.17;;
13469;SDS011;6807;48.682;9.032;2023-04-15T17:47:35;2.80;;;2.55;;
13469;SDS011;6807;48.682;9.032;2023-04-15T17:50:02;2.45;;;2.25;;
13469;SDS011;6807;48.682;9.032;2023-04-15T17:52:30;2.70;;;2.50;;
13469;SDS011;6807;48.682;9.032;2023-04-15T17:54:59;2.47;;;2.28;;
13469;SDS011;6807;48.682;9.032;2023-04-15T17:57:26;2.60;;;2.40;;
13469;SDS011;6807;48.682;9.032;2023-04-15T17:59:53;2.90;;;2.40;;
13469;SDS011;6807;48.682;9.032;2023-04-15T18:02:21;3.00;;;2.70;;
13469;SDS011;6807;48.682;9.032;2023-04-15T18:04:49;3.85;;;2.60;;
13469;SDS011;6807;48.682;9.032;2023-04-15T18:07:17;3.70;;;2.30;;
13469;SDS011;6807;48.682;9.032;2023-04-15T18:12:17;3.20;;;2.35;;
13469;SDS011;6807;48.682;9.032;2023-04-15T18:14:50;2.65;;;2.45;;
13469;SDS011;6807;48.682;9.032;2023-04-15T18:17:19;2.60;;;2.35;;
13469;SDS011;6807;48.682;9.032;2023-04-15T18:19:47;3.05;;;2.60;;
13469;SDS011;6807;48.682;9.032;2023-04-15T18:22:14;2.58;;;2.38;;
13469;SDS011;6807;48.682;9.032;2023-04-15T18:24:40;2.63;;;2.42;;
13469;SDS011;6807;48.682;9.032;2023-04-15T18:29:44;2.33;;;2.13;;
13469;SDS011;6807;48.682;9.032;2023-04-15T18:32:12;3.03;;;2.78;;
13469;SDS011;6807;48.682;9.032;2023-04-15T18:34:40;2.78;;;2.55;;
13469;SDS011;6807;48.682;9.032;2023-04-15T18:37:07;3.13;;;2.83;;
13469;SDS011;6807;48.682;9.032;2023-04-15T18:39:35;3.42;;;3.13;;
13469;SDS011;6807;48.682;9.032;2023-04-15T18:42:03;2.88;;;2.58;;
13469;SDS011;6807;48.682;9.032;2023-04-15T18:44:31;3.30;;;3.00;;
13469;SDS011;6807;48.682;9.032;2023-04-15T18:46:59;3.10;;;2.90;;
13469;SDS011;6807;48.682;9.032;2023-04-15T18:49:30;3.90;;;3.13;;
13469;SDS011;6807;48.682;9.032;2023-04-15T18:51:58;5.22;;;3.20;;